createdAt,value
2023-05-25T00:01:37.564Z,90.60
2023-05-25T00:04:04.737Z,90.70
2023-05-25T00:06:32.486Z,91.00
2023-05-25T00:08:59.205Z,91.20
2023-05-25T00:11:26.749Z,90.80
2023-05-25T00:13:53.768Z,90.50
2023-05-25T00:16:20.968Z,90.60
2023-05-25T00:18:48.798Z,91.20
2023-05-25T00:21:16.222Z,90.60
2023-05-25T00:23:43.242Z,90.50
2023-05-25T00:26:10.036Z,90.40
2023-05-25T00:28:36.931Z,90.90
2023-05-25T00:31:03.736Z,90.70
2023-05-25T00:33:30.932Z,90.90
2023-05-25T00:35:58.646Z,91.10
2023-05-25T00:38:25.650Z,91.20
2023-05-25T00:40:56.635Z,91.20
2023-05-25T00:43:23.367Z,91.80
2023-05-25T00:45:51.743Z,91.40
2023-05-25T00:48:18.769Z,91.60
2023-05-25T00:50:45.856Z,91.20
2023-05-25T00:53:13.662Z,90.90
2023-05-25T00:55:51.060Z,90.80
2023-05-25T00:58:20.487Z,91.10
2023-05-25T01:00:49.493Z,91.40
2023-05-25T01:03:21.773Z,91.50
2023-05-25T01:05:49.056Z,91.60
2023-05-25T01:08:17.718Z,92.00
2023-05-25T01:10:46.237Z,92.00
2023-05-25T01:13:13.247Z,91.80
2023-05-25T01:15:39.933Z,91.90
2023-05-25T01:18:06.703Z,92.10
2023-05-25T01:20:33.649Z,92.10
2023-05-25T01:23:03.137Z,91.90
2023-05-25T01:25:47.797Z,92.10
2023-05-25T01:28:20.946Z,92.30
2023-05-25T01:30:49.014Z,92.40
2023-05-25T01:33:17.120Z,92.90
2023-05-25T01:35:44.430Z,92.90
2023-05-25T01:38:11.494Z,93.10
2023-05-25T01:40:38.186Z,93.30
2023-05-25T01:43:04.856Z,93.40
2023-05-25T01:45:32.951Z,93.50
2023-05-25T01:48:13.019Z,93.60
2023-05-25T01:50:46.008Z,93.50
2023-05-25T01:53:16.538Z,93.70
2023-05-25T01:55:46.428Z,93.40
2023-05-25T01:58:14.838Z,93.70
2023-05-25T02:00:41.785Z,93.80
2023-05-25T02:03:10.166Z,94.20
2023-05-25T02:05:37.161Z,94.30
2023-05-25T02:08:03.939Z,94.30
2023-05-25T02:10:30.910Z,94.50
2023-05-25T02:12:57.697Z,94.40
2023-05-25T02:15:24.404Z,94.70
2023-05-25T02:17:51.507Z,94.70
2023-05-25T02:20:18.331Z,95.00
2023-05-25T02:22:45.056Z,95.00
2023-05-25T02:25:12.607Z,95.00
2023-05-25T02:27:39.353Z,95.30
2023-05-25T02:30:06.513Z,95.30
2023-05-25T02:32:33.707Z,95.40
2023-05-25T02:35:00.910Z,95.30
2023-05-25T02:37:27.619Z,95.40
2023-05-25T02:39:54.380Z,95.50
2023-05-25T02:42:21.125Z,95.60
2023-05-25T02:44:48.574Z,95.70
2023-05-25T02:47:16.004Z,95.80
2023-05-25T02:49:42.850Z,95.80
2023-05-25T02:52:09.569Z,96.00
2023-05-25T02:54:36.536Z,96.00
2023-05-25T02:57:03.715Z,96.10
2023-05-25T02:59:30.644Z,96.40
2023-05-25T03:01:58.576Z,96.40
2023-05-25T03:04:26.043Z,96.60
2023-05-25T03:06:52.787Z,96.70
2023-05-25T03:09:19.563Z,97.20
2023-05-25T03:11:46.270Z,97.20
2023-05-25T03:14:13.332Z,97.30
2023-05-25T03:16:40.181Z,97.40
2023-05-25T03:19:07.466Z,97.30
2023-05-25T03:21:34.264Z,97.10
2023-05-25T03:24:00.997Z,97.20
2023-05-25T03:26:28.983Z,97.30
2023-05-25T03:28:55.871Z,97.30
2023-05-25T03:31:23.621Z,97.30
2023-05-25T03:33:50.475Z,97.30
2023-05-25T03:36:20.182Z,97.20
2023-05-25T03:38:47.302Z,97.50
2023-05-25T03:41:14.081Z,98.00
2023-05-25T03:43:40.941Z,98.00
2023-05-25T03:46:07.835Z,98.10
2023-05-25T03:48:34.792Z,98.30
2023-05-25T03:51:01.621Z,98.50
2023-05-25T03:53:28.386Z,98.50
2023-05-25T03:55:55.208Z,98.70
2023-05-25T03:58:22.002Z,98.60
2023-05-25T04:00:52.718Z,98.70
2023-05-25T04:03:20.679Z,98.70
2023-05-25T04:05:47.880Z,98.80
2023-05-25T04:08:18.103Z,98.70
2023-05-25T04:10:45.528Z,98.90
2023-05-25T04:13:12.567Z,98.90
2023-05-25T04:15:39.536Z,99.00
2023-05-25T04:18:06.357Z,99.00
2023-05-25T04:20:33.251Z,99.40
2023-05-25T04:23:00.142Z,99.10
2023-05-25T04:25:29.234Z,99.10
2023-05-25T04:27:56.862Z,99.50
2023-05-25T04:30:24.075Z,99.20
2023-05-25T04:32:50.925Z,98.70
2023-05-25T04:35:20.937Z,98.40
2023-05-25T04:37:48.465Z,98.40
2023-05-25T04:40:15.294Z,98.10
2023-05-25T04:42:42.112Z,98.10
2023-05-25T04:45:11.952Z,98.30
2023-05-25T04:47:41.262Z,98.10
2023-05-25T04:50:09.386Z,97.80
2023-05-25T04:52:36.589Z,97.70
2023-05-25T04:55:03.426Z,96.70
2023-05-25T04:57:31.567Z,96.40
2023-05-25T04:59:58.707Z,96.50
2023-05-25T05:02:26.068Z,96.30
2023-05-25T05:04:53.873Z,96.20
2023-05-25T05:07:24.148Z,95.80
2023-05-25T05:09:50.923Z,95.60
2023-05-25T05:12:17.670Z,95.00
2023-05-25T05:14:44.423Z,94.90
2023-05-25T05:17:12.012Z,94.90
2023-05-25T05:19:38.790Z,94.40
2023-05-25T05:22:05.518Z,94.30
2023-05-25T05:24:32.292Z,93.80
2023-05-25T05:26:59.516Z,93.40
2023-05-25T05:29:28.213Z,93.10
2023-05-25T05:31:55.884Z,91.90
2023-05-25T05:34:22.706Z,91.60
2023-05-25T05:36:57.239Z,91.20
2023-05-25T05:39:24.521Z,90.70
2023-05-25T05:41:51.284Z,91.70
2023-05-25T05:44:18.861Z,91.00
2023-05-25T05:46:45.906Z,90.50
2023-05-25T05:49:12.656Z,90.00
2023-05-25T05:51:39.358Z,90.10
2023-05-25T05:54:06.450Z,89.50
2023-05-25T05:56:33.186Z,89.50
2023-05-25T05:59:00.010Z,89.30
2023-05-25T06:01:26.756Z,89.10
2023-05-25T06:03:54.454Z,89.40
2023-05-25T06:06:21.778Z,89.20
2023-05-25T06:08:48.534Z,89.30
2023-05-25T06:11:15.428Z,88.60
2023-05-25T06:13:42.272Z,89.00
2023-05-25T06:16:09.078Z,89.10
2023-05-25T06:18:35.920Z,89.50
2023-05-25T06:21:02.669Z,89.00
2023-05-25T06:23:29.449Z,89.10
2023-05-25T06:25:56.111Z,88.30
2023-05-25T06:28:22.865Z,87.80
2023-05-25T06:30:49.639Z,87.40
2023-05-25T06:33:16.366Z,86.20
2023-05-25T06:35:43.299Z,84.90
2023-05-25T06:38:11.562Z,85.50
2023-05-25T06:40:38.477Z,85.40
2023-05-25T06:43:05.250Z,85.20
2023-05-25T06:45:32.003Z,85.30
2023-05-25T06:47:58.918Z,83.00
2023-05-25T06:50:25.934Z,82.60
2023-05-25T06:52:52.649Z,82.30
2023-05-25T06:55:19.341Z,82.90
2023-05-25T06:57:46.137Z,82.50
2023-05-25T07:00:13.337Z,82.90
2023-05-25T07:02:40.178Z,81.70
2023-05-25T07:05:07.151Z,81.50
2023-05-25T07:07:33.943Z,81.50
2023-05-25T07:10:01.452Z,81.10
2023-05-25T07:12:28.309Z,80.00
2023-05-25T07:14:54.990Z,80.50
2023-05-25T07:17:22.155Z,80.30
2023-05-25T07:19:50.050Z,80.70
2023-05-25T07:22:18.990Z,79.80
2023-05-25T07:24:46.191Z,80.10
2023-05-25T07:27:14.241Z,80.00
2023-05-25T07:29:41.281Z,78.70
2023-05-25T07:32:07.998Z,78.30
2023-05-25T07:34:35.164Z,78.80
2023-05-25T07:37:01.983Z,77.50
2023-05-25T07:39:28.820Z,77.40
2023-05-25T07:41:55.653Z,77.90
2023-05-25T07:44:22.397Z,77.90
2023-05-25T07:46:49.263Z,76.90
2023-05-25T07:49:16.362Z,76.80
2023-05-25T07:51:44.750Z,77.20
2023-05-25T07:54:12.038Z,77.30
2023-05-25T07:56:39.240Z,77.50
2023-05-25T07:59:06.339Z,76.60
2023-05-25T08:01:33.096Z,76.20
2023-05-25T08:04:00.268Z,75.70
2023-05-25T08:06:27.192Z,74.70
2023-05-25T08:08:53.872Z,74.50
2023-05-25T08:11:23.288Z,74.00
2023-05-25T08:13:50.016Z,74.40
2023-05-25T08:16:17.636Z,74.50
2023-05-25T08:18:46.950Z,74.60
2023-05-25T08:21:14.198Z,74.30
2023-05-25T08:23:42.572Z,71.40
2023-05-25T08:26:26.029Z,71.60
2023-05-25T08:28:56.460Z,69.80
2023-05-25T08:31:23.286Z,68.10
2023-05-25T08:33:50.002Z,67.40
2023-05-25T08:36:16.804Z,66.70
2023-05-25T08:38:43.573Z,69.20
2023-05-25T08:41:11.138Z,67.00
2023-05-25T08:43:37.896Z,65.20
2023-05-25T08:46:06.151Z,62.30
2023-05-25T08:48:40.915Z,65.10
2023-05-25T08:51:10.838Z,63.30
2023-05-25T08:53:39.228Z,62.00
2023-05-25T08:56:11.549Z,62.90
2023-05-25T08:58:43.543Z,63.50
2023-05-25T09:01:13.296Z,64.30
2023-05-25T09:03:40.627Z,64.80
2023-05-25T09:06:09.007Z,64.70
2023-05-25T09:08:37.669Z,64.30
2023-05-25T09:11:04.831Z,66.60
2023-05-25T09:13:31.658Z,65.50
2023-05-25T09:15:58.875Z,63.70
2023-05-25T09:18:25.890Z,59.20
2023-05-25T09:20:53.341Z,60.10
2023-05-25T09:23:21.039Z,57.90
2023-05-25T09:25:48.302Z,56.70
2023-05-25T09:28:25.675Z,57.00
2023-05-25T09:30:53.826Z,58.10
2023-05-25T09:33:21.100Z,60.60
2023-05-25T09:35:48.071Z,58.80
2023-05-25T09:38:16.518Z,57.40
2023-05-25T09:40:44.246Z,58.20
2023-05-25T09:43:21.976Z,57.00
2023-05-25T09:45:52.765Z,54.40
2023-05-25T09:48:19.665Z,52.50
2023-05-25T09:50:49.584Z,52.00
2023-05-25T09:53:16.630Z,53.10
2023-05-25T09:55:53.304Z,53.50
2023-05-25T09:58:22.763Z,58.10
2023-05-25T10:00:49.700Z,56.10
2023-05-25T10:03:18.859Z,53.20
2023-05-25T10:05:45.908Z,49.50
2023-05-25T10:08:13.866Z,51.50
2023-05-25T10:10:41.641Z,53.10
2023-05-25T10:13:09.558Z,51.50
2023-05-25T10:15:37.868Z,51.20
2023-05-25T10:18:06.739Z,51.80
2023-05-25T10:20:35.225Z,51.90
2023-05-25T10:23:09.596Z,48.50
2023-05-25T10:25:39.302Z,48.60
2023-05-25T10:28:21.346Z,51.00
2023-05-25T10:30:49.555Z,49.90
2023-05-25T10:33:16.450Z,49.30
2023-05-25T10:36:01.420Z,49.10
2023-05-25T10:38:31.615Z,49.60
2023-05-25T10:40:59.594Z,51.20
2023-05-25T10:43:26.884Z,53.20
2023-05-25T10:45:54.952Z,52.30
2023-05-25T10:48:23.039Z,52.90
2023-05-25T10:50:50.700Z,50.80
2023-05-25T10:53:20.904Z,48.90
2023-05-25T10:55:50.657Z,51.90
2023-05-25T10:58:18.533Z,52.30
2023-05-25T11:00:58.128Z,48.50
2023-05-25T11:03:43.878Z,51.10
2023-05-25T11:06:11.566Z,50.20
2023-05-25T11:08:51.609Z,49.20
2023-05-25T11:11:18.479Z,50.00
2023-05-25T11:13:49.499Z,48.00
2023-05-25T11:16:17.590Z,46.30
2023-05-25T11:18:55.134Z,47.20
2023-05-25T11:21:27.966Z,47.40
2023-05-25T11:24:06.841Z,48.30
2023-05-25T11:26:34.191Z,48.90
2023-05-25T11:29:04.843Z,48.80
2023-05-25T11:31:36.348Z,47.90
2023-05-25T11:34:05.692Z,46.40
2023-05-25T11:36:34.139Z,46.90
2023-05-25T11:39:06.829Z,46.60
2023-05-25T11:41:38.611Z,46.10
2023-05-25T11:44:08.900Z,46.70
2023-05-25T11:46:38.754Z,47.10
2023-05-25T11:49:05.672Z,47.50
2023-05-25T11:51:32.516Z,48.60
2023-05-25T11:53:59.248Z,47.50
2023-05-25T11:56:35.214Z,48.90
2023-05-25T11:59:02.559Z,49.40
2023-05-25T12:01:31.983Z,49.30
2023-05-25T12:04:07.894Z,49.40
2023-05-25T12:06:36.745Z,49.20
2023-05-25T12:09:08.185Z,49.40
2023-05-25T12:11:38.315Z,49.20
2023-05-25T12:14:06.038Z,51.00
2023-05-25T12:16:38.966Z,51.30
2023-05-25T12:19:06.656Z,51.00
2023-05-25T12:21:34.119Z,50.70
2023-05-25T12:24:01.675Z,51.50
2023-05-25T12:26:28.724Z,50.90
2023-05-25T12:29:01.604Z,50.40
2023-05-25T12:31:31.747Z,48.10
2023-05-25T12:34:07.715Z,48.60
2023-05-25T12:36:38.738Z,50.20
2023-05-25T12:39:06.213Z,50.40
2023-05-25T12:41:42.328Z,49.30
2023-05-25T12:44:16.411Z,48.90
2023-05-25T12:46:43.348Z,49.80
2023-05-25T12:49:28.064Z,50.90
2023-05-25T12:51:55.550Z,50.40
2023-05-25T12:54:41.676Z,47.40
2023-05-25T12:57:11.755Z,48.90
2023-05-25T12:59:40.576Z,48.10
2023-05-25T13:02:16.886Z,48.60
2023-05-25T13:04:48.302Z,49.30
2023-05-25T13:07:18.404Z,50.10
2023-05-25T13:09:45.352Z,48.90
2023-05-25T13:12:15.393Z,49.10
2023-05-25T13:14:42.282Z,49.00
2023-05-25T13:17:10.905Z,50.70
2023-05-25T13:19:53.056Z,50.10
2023-05-25T13:22:22.534Z,47.60
2023-05-25T13:24:51.490Z,47.70
2023-05-25T13:27:18.343Z,47.30
2023-05-25T13:29:48.956Z,45.30
2023-05-25T13:32:17.498Z,45.40
2023-05-25T13:34:44.300Z,45.50
2023-05-25T13:37:11.072Z,45.60
2023-05-25T13:39:38.447Z,46.80
2023-05-25T13:42:05.221Z,45.20
2023-05-25T13:44:34.031Z,46.60
2023-05-25T13:47:00.911Z,45.60
2023-05-25T13:49:27.699Z,47.00
2023-05-25T13:51:54.431Z,47.30
2023-05-25T13:54:21.852Z,47.10
2023-05-25T13:56:48.776Z,46.80
2023-05-25T13:59:15.711Z,44.50
2023-05-25T14:01:42.554Z,44.70
2023-05-25T14:04:10.202Z,45.10
2023-05-25T14:06:37.072Z,45.90
2023-05-25T14:09:03.852Z,46.40
2023-05-25T14:11:30.670Z,46.10
2023-05-25T14:13:57.424Z,46.50
2023-05-25T14:16:24.287Z,46.00
2023-05-25T14:18:51.127Z,46.80
2023-05-25T14:21:18.081Z,47.20
2023-05-25T14:23:44.922Z,46.90
2023-05-25T14:26:12.446Z,46.80
2023-05-25T14:28:39.194Z,48.10
2023-05-25T14:31:06.326Z,49.60
2023-05-25T14:33:33.190Z,48.80
2023-05-25T14:36:00.000Z,48.40
2023-05-25T14:38:26.781Z,47.70
2023-05-25T14:40:53.490Z,47.20
2023-05-25T14:43:20.210Z,46.90
2023-05-25T14:45:47.326Z,47.90
2023-05-25T14:48:16.931Z,48.10
2023-05-25T14:50:44.704Z,48.20
2023-05-25T14:53:17.498Z,48.50
2023-05-25T14:55:44.993Z,48.30
2023-05-25T14:58:11.898Z,47.70
2023-05-25T15:00:38.733Z,48.10
2023-05-25T15:03:05.509Z,47.40
2023-05-25T15:05:32.272Z,48.00
2023-05-25T15:07:59.115Z,46.80
2023-05-25T15:10:25.844Z,46.00
2023-05-25T15:12:52.545Z,46.10
2023-05-25T15:15:19.276Z,45.40
2023-05-25T15:17:46.072Z,45.30
2023-05-25T15:20:12.850Z,46.20
2023-05-25T15:22:39.636Z,47.90
2023-05-25T15:25:06.432Z,47.40
2023-05-25T15:27:34.981Z,47.10
2023-05-25T15:30:01.759Z,46.50
2023-05-25T15:32:28.461Z,47.80
2023-05-25T15:34:55.220Z,47.60
2023-05-25T15:37:21.953Z,46.40
2023-05-25T15:39:48.762Z,46.70
2023-05-25T15:42:15.542Z,46.00
2023-05-25T15:44:42.279Z,46.30
2023-05-25T15:47:09.008Z,46.20
2023-05-25T15:49:37.193Z,46.00
2023-05-25T15:52:04.581Z,46.90
2023-05-25T15:54:31.830Z,46.40
2023-05-25T15:56:58.975Z,46.70
2023-05-25T15:59:25.796Z,47.10
2023-05-25T16:01:52.698Z,47.00
2023-05-25T16:04:19.672Z,46.90
2023-05-25T16:06:48.564Z,47.50
2023-05-25T16:09:16.236Z,48.40
2023-05-25T16:11:43.128Z,48.50
2023-05-25T16:14:09.811Z,48.80
2023-05-25T16:16:36.856Z,48.80
2023-05-25T16:19:03.826Z,48.90
2023-05-25T16:21:31.567Z,48.30
2023-05-25T16:26:43.454Z,49.40
2023-05-25T16:29:11.441Z,49.20
2023-05-25T16:31:43.067Z,48.10
2023-05-25T16:34:13.253Z,48.90
2023-05-25T16:36:40.257Z,49.30
2023-05-25T16:39:08.659Z,49.40
2023-05-25T16:41:37.068Z,48.60
2023-05-25T16:44:03.869Z,48.60
2023-05-25T16:46:30.840Z,50.20
2023-05-25T16:48:59.020Z,50.30
2023-05-25T16:51:29.601Z,49.70
2023-05-25T16:53:58.710Z,48.90
2023-05-25T16:56:34.784Z,49.70
2023-05-25T16:59:03.521Z,50.40
2023-05-25T17:01:31.765Z,50.50
2023-05-25T17:04:00.401Z,49.70
2023-05-25T17:06:28.732Z,49.10
2023-05-25T17:08:58.732Z,49.00
2023-05-25T17:11:28.173Z,50.70
2023-05-25T17:14:04.909Z,51.00
2023-05-25T17:16:34.566Z,51.00
2023-05-25T17:19:01.820Z,50.50
2023-05-25T17:21:31.310Z,50.80
2023-05-25T17:24:02.136Z,50.80
2023-05-25T17:26:28.950Z,51.40
2023-05-25T17:28:57.859Z,50.60
2023-05-25T17:31:24.718Z,51.50
2023-05-25T17:33:53.462Z,51.50
2023-05-25T17:36:27.733Z,53.30
2023-05-25T17:38:54.695Z,55.20
2023-05-25T17:41:22.931Z,56.60
2023-05-25T17:43:53.522Z,56.70
2023-05-25T17:46:21.715Z,56.60
2023-05-25T17:48:50.849Z,56.80
2023-05-25T17:51:20.987Z,56.70
2023-05-25T17:53:48.000Z,57.20
2023-05-25T17:56:18.669Z,57.40
2023-05-25T17:58:48.668Z,57.70
2023-05-25T18:01:16.959Z,58.20
2023-05-25T18:03:44.203Z,58.50
2023-05-25T18:06:11.103Z,58.90
2023-05-25T18:08:37.851Z,59.40
2023-05-25T18:11:04.695Z,59.90
2023-05-25T18:13:31.585Z,59.80
2023-05-25T18:15:58.492Z,60.20
2023-05-25T18:18:25.434Z,60.20
2023-05-25T18:20:52.170Z,60.50
2023-05-25T18:23:19.008Z,61.00
2023-05-25T18:25:48.097Z,61.10
2023-05-25T18:28:17.310Z,61.00
2023-05-25T18:30:45.667Z,61.50
2023-05-25T18:33:14.515Z,61.60
2023-05-25T18:35:44.026Z,61.90
2023-05-25T18:38:14.789Z,62.10
2023-05-25T18:40:45.317Z,62.60
2023-05-25T18:43:13.362Z,62.70
2023-05-25T18:45:45.915Z,63.10
2023-05-25T18:48:16.088Z,62.90
2023-05-25T18:50:44.661Z,63.20
2023-05-25T18:53:13.838Z,63.50
2023-05-25T18:55:42.928Z,63.70
2023-05-25T18:58:11.196Z,64.10
2023-05-25T19:00:39.267Z,63.90
2023-05-25T19:03:10.086Z,64.40
2023-05-25T19:05:43.651Z,64.30
2023-05-25T19:08:11.722Z,64.60
2023-05-25T19:10:40.925Z,64.80
2023-05-25T19:13:08.010Z,64.90
2023-05-25T19:15:34.867Z,65.00
2023-05-25T19:18:05.682Z,69.00
2023-05-25T19:20:36.448Z,67.30
2023-05-25T19:23:08.025Z,69.80
2023-05-25T19:25:39.852Z,69.90
2023-05-25T19:28:07.790Z,70.10
2023-05-25T19:30:37.296Z,70.40
2023-05-25T19:33:04.066Z,72.20
2023-05-25T19:35:39.065Z,69.80
2023-05-25T19:38:08.105Z,71.90
2023-05-25T19:40:34.887Z,71.00
2023-05-25T19:47:10.359Z,72.40
2023-05-25T19:49:37.088Z,73.00
2023-05-25T19:52:03.862Z,71.10
2023-05-25T19:54:30.933Z,71.70
2023-05-25T19:56:57.671Z,72.60
2023-05-25T19:59:27.949Z,73.10
2023-05-25T20:01:55.011Z,73.60
2023-05-25T20:04:22.173Z,73.40
2023-05-25T20:06:48.894Z,72.90
2023-05-25T20:09:15.779Z,74.20
2023-05-25T20:11:42.563Z,73.20
2023-05-25T20:14:09.581Z,73.30
2023-05-25T20:16:36.454Z,73.20
2023-05-25T20:19:11.190Z,73.90
2023-05-25T20:21:38.064Z,74.60
2023-05-25T20:24:04.905Z,74.30
2023-05-25T20:26:31.927Z,74.70
2023-05-25T20:28:58.622Z,75.00
2023-05-25T20:31:25.436Z,74.60
2023-05-25T20:33:52.146Z,75.00
2023-05-25T20:36:18.868Z,74.90
2023-05-25T20:38:45.732Z,76.00
2023-05-25T20:41:12.505Z,75.40
2023-05-25T20:43:39.318Z,75.80
2023-05-25T20:46:09.451Z,77.40
2023-05-25T20:48:36.589Z,78.00
2023-05-25T20:51:03.265Z,78.00
2023-05-25T20:53:32.819Z,77.10
2023-05-25T20:56:01.603Z,77.50
2023-05-25T20:58:28.274Z,78.30
2023-05-25T21:00:55.013Z,78.30
2023-05-25T21:03:21.808Z,79.30
2023-05-25T21:05:48.602Z,78.90
2023-05-25T21:08:15.360Z,78.20
2023-05-25T21:10:42.112Z,80.10
2023-05-25T21:13:08.829Z,80.20
2023-05-25T21:15:35.663Z,80.10
2023-05-25T21:18:03.625Z,80.90
2023-05-25T21:20:47.883Z,80.40
2023-05-25T21:23:14.602Z,80.80
2023-05-25T21:25:41.426Z,82.20
2023-05-25T21:28:10.291Z,81.60
2023-05-25T21:30:37.013Z,82.30
2023-05-25T21:33:03.876Z,82.50
2023-05-25T21:35:30.708Z,83.20
2023-05-25T21:37:57.445Z,82.80
2023-05-25T21:40:24.152Z,83.30
2023-05-25T21:42:53.333Z,83.10
2023-05-25T21:45:20.368Z,83.00
2023-05-25T21:47:47.477Z,83.30
2023-05-25T21:50:14.209Z,83.40
2023-05-25T21:52:41.614Z,83.40
2023-05-25T21:55:08.670Z,83.60
2023-05-25T21:57:35.403Z,82.80
2023-05-25T22:00:02.186Z,83.10
2023-05-25T22:05:57.621Z,83.60
2023-05-25T22:08:24.807Z,84.50
2023-05-25T22:10:51.522Z,85.00
2023-05-25T22:13:18.242Z,85.40
2023-05-25T22:15:45.120Z,86.10
2023-05-25T22:18:12.105Z,86.60
2023-05-25T22:20:41.521Z,86.70
2023-05-25T22:23:08.690Z,86.60
2023-05-25T22:25:35.508Z,86.70
2023-05-25T22:28:02.288Z,87.10
2023-05-25T22:30:29.032Z,87.50
2023-05-25T22:32:55.843Z,87.90
2023-05-25T22:35:22.725Z,88.20
2023-05-25T22:37:49.417Z,87.90
2023-05-25T22:40:16.235Z,87.80
2023-05-25T22:42:49.735Z,87.80
2023-05-25T22:45:17.446Z,87.70
2023-05-25T22:47:44.451Z,87.90
2023-05-25T22:50:11.629Z,87.90
2023-05-25T22:52:39.160Z,87.80
2023-05-25T22:55:06.816Z,88.30
2023-05-25T22:57:33.543Z,87.80
2023-05-25T23:00:00.261Z,87.50
2023-05-25T23:02:27.187Z,86.90
2023-05-25T23:04:54.130Z,86.90
2023-05-25T23:07:20.935Z,86.80
2023-05-25T23:09:47.689Z,87.90
2023-05-25T23:12:14.458Z,88.10
2023-05-25T23:14:44.587Z,88.40
2023-05-25T23:17:11.345Z,88.70
2023-05-25T23:19:38.736Z,89.10
2023-05-25T23:22:05.693Z,88.90
2023-05-25T23:24:32.425Z,88.00
2023-05-25T23:26:59.117Z,88.40
2023-05-25T23:29:25.897Z,89.20
2023-05-25T23:31:52.820Z,89.50
2023-05-25T23:34:19.629Z,90.00
2023-05-25T23:36:46.340Z,90.00
2023-05-25T23:39:13.194Z,89.60
2023-05-25T23:41:39.942Z,90.30
2023-05-25T23:44:07.135Z,89.00
2023-05-25T23:46:33.916Z,89.40
2023-05-25T23:49:00.711Z,89.90
2023-05-25T23:51:27.433Z,90.00
2023-05-25T23:53:54.129Z,90.40
2023-05-25T23:56:21.858Z,91.10
2023-05-25T23:58:48.597Z,91.80
